Time;durP1;ratioP1;P1;durP2;ratioP2;P2;SDS_P1;SDS_P2;PMS_P1;PMS_P2;Temp;Humidity;BMP_temperature;BMP_pressure;BME280_temperature;BME280_humidity;BME280_pressure;Samples;Min_cycle;Max_cycle;Signal;HPM_P1;HPM_P2
2023/10/11 00:00:44;;;;;;;11.68;5.13;;;;;;;14.85;60.26;97044.88;6245616;23;20024;-80
2023/10/11 00:03:16;;;;;;;13.45;5.68;;;;;;;14.81;60.24;97049.69;6245891;23;20349;-80
2023/10/11 00:05:46;;;;;;;9.07;4.90;;;;;;;14.79;60.64;97051.72;6245315;22;20051;-80
2023/10/11 00:08:16;;;;;;;11.15;4.88;;;;;;;14.83;60.84;97058.19;6245586;23;20020;-79
2023/10/11 00:10:53;;;;;;;13.82;5.20;;;;;;;14.88;60.98;97054.16;6245547;23;20024;-79
2023/10/11 00:13:21;;;;;;;10.38;4.60;;;;;;;14.90;60.26;97052.16;6245624;23;20087;-80
2023/10/11 00:15:51;;;;;;;7.97;4.63;;;;;;;14.96;60.31;97051.38;6255049;22;20024;-79
2023/10/11 00:18:20;;;;;;;12.13;4.93;;;;;;;14.96;59.86;97052.19;6263515;23;20044;-80
2023/10/11 00:20:51;;;;;;;13.98;5.25;;;;;;;14.93;60.14;97051.75;6263249;23;20031;-80
2023/10/11 00:23:22;;;;;;;13.50;5.35;;;;;;;14.91;60.52;97049.34;6253022;23;20450;-79
2023/10/11 00:25:52;;;;;;;15.07;5.78;;;;;;;14.89;60.56;97045.28;6245172;22;20540;-80
2023/10/11 00:28:24;;;;;;;10.63;4.95;;;;;;;14.93;60.91;97043.88;6245455;23;20391;-79
2023/10/11 00:30:53;;;;;;;9.02;5.03;;;;;;;14.94;60.53;97045.50;6245010;23;20477;-79
2023/10/11 00:33:21;;;;;;;13.85;5.53;;;;;;;14.91;60.54;97051.13;6245236;23;20020;-79
2023/10/11 00:36:05;;;;;;;10.60;5.13;;;;;;;14.89;60.58;97034.75;6244655;22;20043;-80
2023/10/11 00:38:43;;;;;;;12.90;5.28;;;;;;;14.86;60.59;97033.34;6245195;23;20082;-79
2023/10/11 00:41:17;;;;;;;14.52;5.35;;;;;;;14.84;60.52;97032.72;6245553;23;20031;-80
2023/10/11 00:43:49;;;;;;;17.45;5.20;;;;;;;14.82;60.61;97035.56;6245155;23;20024;-79
2023/10/11 00:46:19;;;;;;;13.30;5.50;;;;;;;14.82;60.47;97032.13;6244912;22;20075;-80
2023/10/11 00:48:54;;;;;;;12.32;5.43;;;;;;;14.79;60.49;97028.06;6245094;23;20353;-79
2023/10/11 00:51:29;;;;;;;17.52;5.80;;;;;;;14.76;60.41;97030.31;6245082;23;20024;-80
2023/10/11 00:53:58;;;;;;;16.33;5.80;;;;;;;14.73;60.66;97026.22;6244718;23;20496;-79
2023/10/11 00:56:31;;;;;;;13.75;5.35;;;;;;;14.77;60.43;97031.91;6244791;22;20070;-79
2023/10/11 00:58:59;;;;;;;13.50;5.50;;;;;;;14.77;60.24;97024.03;6245023;23;20350;-80
2023/10/11 01:01:27;;;;;;;9.60;4.80;;;;;;;14.79;60.84;97020.19;6244545;23;20059;-80
2023/10/11 01:03:55;;;;;;;15.45;5.25;;;;;;;14.83;60.25;97023.25;6245017;23;20024;-80
2023/10/11 01:06:25;;;;;;;14.10;5.25;;;;;;;14.81;60.09;97012.94;6244762;22;20020;-80
2023/10/11 01:08:53;;;;;;;10.32;4.90;;;;;;;14.83;60.12;97015.38;6245104;23;20020;-80
2023/10/11 01:11:22;;;;;;;10.23;4.82;;;;;;;14.82;60.10;97014.56;6245063;23;20016;-80
2023/10/11 01:13:51;;;;;;;12.55;5.75;;;;;;;14.80;60.23;97016.59;6244558;23;20024;-80
2023/10/11 01:16:24;;;;;;;9.50;5.38;;;;;;;14.81;60.45;97018.19;6244569;22;20046;-80
2023/10/11 01:18:52;;;;;;;;;;;;;;;14.85;60.11;97013.34;6245487;23;20024;-79
2023/10/11 01:21:21;;;;;;;9.85;4.53;;;;;;;14.89;59.93;97013.75;6245038;23;20242;-79
2023/10/11 01:23:49;;;;;;;12.25;5.28;;;;;;;14.90;59.75;97018.81;6244879;23;20031;-79
2023/10/11 01:26:17;;;;;;;10.45;4.75;;;;;;;14.87;59.48;97015.75;6242577;22;20365;-78
2023/10/11 01:28:45;;;;;;;16.67;6.03;;;;;;;14.86;59.30;97019.41;6245316;23;20020;-77
2023/10/11 01:31:16;;;;;;;12.27;5.88;;;;;;;14.87;59.65;97010.50;6253327;23;20031;-78
2023/10/11 01:33:49;;;;;;;13.38;5.30;;;;;;;14.90;59.43;97013.56;6253752;23;20020;-77
2023/10/11 01:36:21;;;;;;;8.75;4.60;;;;;;;14.95;59.41;97008.50;6251151;22;20103;-78
2023/10/11 01:38:51;;;;;;;13.98;4.70;;;;;;;15.00;58.86;97005.31;6245556;23;20020;-78
2023/10/11 01:41:21;;;;;;;11.43;4.97;;;;;;;15.02;58.94;97005.88;6245017;23;20020;-77
2023/10/11 01:43:49;;;;;;;11.50;4.82;;;;;;;15.06;59.15;97007.13;6251534;23;20024;-78
2023/10/11 01:46:24;;;;;;;13.32;5.00;;;;;;;15.04;58.57;97002.09;6262473;22;20024;-78
2023/10/11 01:48:53;;;;;;;15.15;5.85;;;;;;;15.00;58.80;96994.81;6260970;23;20070;-78
2023/10/11 01:51:26;;;;;;;13.32;4.82;;;;;;;14.97;58.61;96995.19;6246563;23;20024;-77
2023/10/11 01:53:55;;;;;;;14.52;4.93;;;;;;;14.96;58.72;96989.13;6245390;23;20023;-77
2023/10/11 01:56:24;;;;;;;12.43;5.28;;;;;;;14.99;59.29;96990.53;6244343;22;20020;-78
2023/10/11 01:58:52;;;;;;;12.52;4.97;;;;;;;15.03;59.09;96989.13;6245437;23;20020;-77
2023/10/11 02:01:22;;;;;;;10.77;4.15;;;;;;;15.06;58.90;96988.72;6245129;23;20362;-77
2023/10/11 02:03:53;;;;;;;16.42;4.65;;;;;;;15.11;58.41;96991.56;6244987;23;20020;-78
2023/10/11 02:06:22;;;;;;;13.77;5.47;;;;;;;15.12;58.43;97002.88;6244734;22;20020;-78
2023/10/11 02:08:51;;;;;;;12.20;4.68;;;;;;;15.12;58.06;96987.13;6244730;23;20044;-78
2023/10/11 02:11:25;;;;;;;15.60;5.30;;;;;;;15.13;58.00;96989.56;6245313;23;20020;-78
2023/10/11 02:13:53;;;;;;;8.63;4.78;;;;;;;15.16;58.09;96983.09;6246829;23;20355;-77
2023/10/11 02:16:21;;;;;;;10.23;4.30;;;;;;;15.19;58.11;96994.00;6246263;22;20402;-78
2023/10/11 02:18:51;;;;;;;14.48;5.40;;;;;;;15.21;58.36;96991.97;6246741;23;20023;-78
2023/10/11 02:21:19;;;;;;;14.48;4.57;;;;;;;15.27;58.05;96994.81;6246785;23;20028;-77
2023/10/11 02:23:48;;;;;;;12.15;4.45;;;;;;;15.29;57.81;96992.81;6252357;23;20473;-77
2023/10/11 02:26:16;;;;;;;10.25;4.85;;;;;;;15.27;57.81;96985.13;6255328;22;20439;-78
2023/10/11 02:28:48;;;;;;;11.98;4.78;;;;;;;15.31;57.70;96985.53;6246564;23;20070;-77
2023/10/11 02:31:20;;;;;;;18.20;5.32;;;;;;;15.25;57.54;96987.94;6246715;23;20023;-78
2023/10/11 02:33:51;;;;;;;13.05;4.68;;;;;;;15.20;57.62;96985.13;6246369;23;20103;-78
2023/10/11 02:36:20;;;;;;;18.10;5.40;;;;;;;15.15;57.59;96977.03;6246731;22;20051;-77
2023/10/11 02:38:50;;;;;;;13.27;4.97;;;;;;;15.13;57.76;96973.78;6246875;23;20078;-78
2023/10/11 02:41:21;;;;;;;13.40;4.60;;;;;;;15.13;57.83;96979.06;6246509;23;20056;-77
2023/10/11 02:43:50;;;;;;;14.13;4.70;;;;;;;15.18;58.29;96973.19;6246410;23;20078;-77
2023/10/11 02:46:18;;;;;;;9.52;4.38;;;;;;;15.21;57.55;96973.56;6246242;22;20024;-77
2023/10/11 02:48:46;;;;;;;10.30;4.90;;;;;;;15.22;57.80;96967.31;6246697;23;20020;-78
2023/10/11 02:51:16;;;;;;;15.18;4.13;;;;;;;15.20;57.53;96979.84;6247257;23;20052;-78
2023/10/11 02:53:44;;;;;;;10.18;4.40;;;;;;;15.17;57.27;96969.72;6246319;23;20020;-78
2023/10/11 02:56:14;;;;;;;11.60;4.47;;;;;;;15.10;57.56;96971.56;6246114;22;20020;-77
2023/10/11 02:58:42;;;;;;;13.88;5.13;;;;;;;15.08;57.59;96973.56;6246434;23;20027;-77
2023/10/11 03:01:20;;;;;;;14.82;5.05;;;;;;;15.06;57.48;96975.59;6245900;23;20058;-77
2023/10/11 03:03:49;;;;;;;18.08;4.85;;;;;;;15.11;57.53;96980.25;6246261;23;20055;-77
2023/10/11 03:06:18;;;;;;;12.15;5.00;;;;;;;15.15;57.29;96979.66;6245866;22;20115;-78
2023/10/11 03:08:46;;;;;;;10.55;4.75;;;;;;;15.16;57.31;96978.63;6245575;23;20031;-78
2023/10/11 03:11:16;;;;;;;15.02;4.53;;;;;;;15.20;56.89;96979.06;6245857;23;20066;-78
2023/10/11 03:13:43;;;;;;;20.30;5.03;;;;;;;15.22;56.93;96985.72;6246160;23;20055;-77
2023/10/11 03:16:13;;;;;;;9.57;4.32;;;;;;;15.19;57.00;96978.22;6245875;22;20022;-77
2023/10/11 03:18:42;;;;;;;11.48;4.25;;;;;;;15.17;57.02;96976.81;6246142;23;20051;-78
2023/10/11 03:21:16;;;;;;;9.95;4.15;;;;;;;15.14;57.11;96971.97;6245421;22;20024;-77
2023/10/11 03:23:46;;;;;;;15.30;4.70;;;;;;;15.11;57.13;96975.81;6245643;23;20466;-78
2023/10/11 03:26:18;;;;;;;13.65;4.82;;;;;;;15.07;57.29;96979.03;6245681;22;20016;-78
2023/10/11 03:28:45;;;;;;;14.73;4.13;;;;;;;15.00;57.43;96971.16;6245873;23;20016;-77
2023/10/11 03:31:15;;;;;;;13.77;4.05;;;;;;;14.99;57.57;96967.69;6245923;23;20024;-78
2023/10/11 03:33:42;;;;;;;13.55;4.68;;;;;;;15.00;57.36;96963.28;6245450;23;20027;-77
2023/10/11 03:36:18;;;;;;;15.00;4.32;;;;;;;14.99;57.72;96961.66;6245786;22;20472;-78
2023/10/11 03:38:53;;;;;;;11.57;4.57;;;;;;;14.99;57.50;96964.28;6245925;23;20020;-78
2023/10/11 03:41:27;;;;;;;15.13;4.72;;;;;;;14.97;57.67;96958.41;6245991;23;20024;-78
2023/10/11 03:44:00;;;;;;;13.40;4.95;;;;;;;14.97;57.50;96963.66;6245138;23;20062;-77
2023/10/11 03:46:33;;;;;;;14.15;4.18;;;;;;;14.95;57.58;96960.44;6245717;22;20020;-77
2023/10/11 03:49:35;;;;;;;14.63;5.03;;;;;;;14.94;57.64;96954.38;6245506;23;20031;-78
2023/10/11 03:52:04;;;;;;;13.13;5.35;;;;;;;14.93;57.57;96957.19;6245651;23;20099;-78
2023/10/11 03:54:36;;;;;;;13.48;4.75;;;;;;;14.91;57.83;96959.19;6245616;23;20077;-77
2023/10/11 03:57:04;;;;;;;10.30;4.68;;;;;;;14.90;57.96;96952.34;6245794;22;20107;-78
2023/10/11 03:59:38;;;;;;;9.10;4.93;;;;;;;14.90;57.89;96954.97;6245246;23;20012;-77
2023/10/11 04:02:10;;;;;;;14.38;5.28;;;;;;;14.90;58.14;96949.72;6245716;23;20074;-78
2023/10/11 04:04:42;;;;;;;;;;;;;;;14.95;58.00;96949.91;6245584;23;20056;-78
2023/10/11 04:07:12;;;;;;;11.20;4.40;;;;;;;14.93;57.73;96947.47;6254122;22;20179;-79
2023/10/11 04:09:40;;;;;;;12.80;5.20;;;;;;;14.89;58.27;96946.28;6261271;23;20477;-78
2023/10/11 04:12:10;;;;;;;14.80;5.25;;;;;;;14.90;58.14;96950.53;6258407;23;20054;-78
2023/10/11 04:14:44;;;;;;;12.02;5.30;;;;;;;14.91;58.16;96948.69;6258465;23;20016;-78
2023/10/11 04:17:26;;;;;;;11.15;4.97;;;;;;;14.91;58.29;96946.91;6252876;22;20047;-78
2023/10/11 04:20:16;;;;;;;11.30;5.13;;;;;;;14.92;58.18;96956.38;6258240;23;20470;-78
2023/10/11 04:22:50;;;;;;;13.75;5.20;;;;;;;14.87;58.00;96960.59;6247154;23;20024;-77
2023/10/11 04:25:23;;;;;;;12.65;4.78;;;;;;;14.83;58.38;96957.59;6245197;23;20289;-78
2023/10/11 04:27:55;;;;;;;10.18;5.22;;;;;;;14.86;58.61;96956.38;6245199;22;20070;-77
2023/10/11 04:30:40;;;;;;;12.30;5.07;;;;;;;14.87;58.23;96958.81;6245227;23;20099;-78
2023/10/11 04:33:12;;;;;;;13.48;4.63;;;;;;;14.86;58.22;96956.38;6245013;23;20586;-77
2023/10/11 04:35:42;;;;;;;17.20;4.73;;;;;;;14.88;58.42;96954.38;6261447;23;20024;-78
2023/10/11 04:38:11;;;;;;;11.95;4.35;;;;;;;14.91;58.37;96953.94;6245940;22;20691;-78
2023/10/11 04:40:41;;;;;;;11.23;4.97;;;;;;;14.93;58.10;96957.19;6245267;23;20020;-78
2023/10/11 04:43:20;;;;;;;10.43;5.13;;;;;;;14.92;58.27;96948.50;6244785;23;20482;-78
2023/10/11 04:45:50;;;;;;;16.45;5.63;;;;;;;14.87;58.17;96948.31;6244977;23;20024;-77
2023/10/11 04:48:33;;;;;;;14.07;6.60;;;;;;;14.79;58.34;96951.91;6245568;22;20079;-78
2023/10/11 04:51:07;;;;;;;11.90;6.72;;;;;;;14.73;58.73;96957.16;6245225;23;20026;-77
2023/10/11 04:53:46;;;;;;;12.23;6.40;;;;;;;14.70;58.67;96947.06;6245191;23;20020;-77
2023/10/11 04:58:59;;;;;;;15.10;6.47;;;;;;;14.63;59.04;96953.09;6261826;22;20050;-79
2023/10/11 05:01:40;;;;;;;15.95;8.32;;;;;;;14.62;58.93;96955.91;6256039;23;20016;-77
2023/10/11 05:04:13;;;;;;;19.75;9.32;;;;;;;14.61;59.36;96959.56;6245623;23;20020;-77
2023/10/11 05:06:41;;;;;;;17.63;5.97;;;;;;;14.62;59.10;96959.34;6245740;22;20078;-77
2023/10/11 05:09:14;;;;;;;17.83;7.70;;;;;;;14.62;59.06;96961.16;6245538;23;20070;-77
2023/10/11 05:11:44;;;;;;;21.50;9.15;;;;;;;14.63;58.88;96962.81;6245357;23;20192;-77
2023/10/11 05:16:59;;;;;;;19.87;10.87;;;;;;;14.52;59.23;96965.94;6245330;22;20100;-77
2023/10/11 05:19:34;;;;;;;20.42;9.95;;;;;;;14.52;59.75;96969.41;6245865;23;20051;-78
2023/10/11 05:22:04;;;;;;;23.13;11.55;;;;;;;14.54;59.46;96966.56;6244497;23;20500;-77
2023/10/11 05:24:44;;;;;;;17.52;8.60;;;;;;;14.52;59.10;96965.94;6244701;23;20099;-78
2023/10/11 05:27:36;;;;;;;23.65;9.45;;;;;;;14.46;59.64;96969.38;6245053;22;20086;-77
2023/10/11 05:30:11;;;;;;;19.13;8.75;;;;;;;14.42;59.99;96966.34;6244923;23;20020;-77
2023/10/11 05:32:49;;;;;;;20.65;8.93;;;;;;;14.38;59.83;96965.91;6251385;23;20028;-77
2023/10/11 05:35:53;;;;;;;22.25;9.52;;;;;;;14.38;60.12;96971.16;6255448;23;20020;-78
2023/10/11 05:52:14;;;;;;;25.45;11.85;;;;;;;14.28;60.33;96970.72;6209680;23;20413;-78
2023/10/11 05:54:42;;;;;;;27.58;12.05;;;;;;;14.27;60.38;96978.78;6248106;23;20055;-77
2023/10/11 05:57:13;;;;;;;24.17;11.30;;;;;;;14.31;60.25;96980.81;6248284;22;20048;-77
2023/10/11 05:59:42;;;;;;;17.23;9.52;;;;;;;14.32;60.09;96966.72;6247743;23;20098;-77
2023/10/11 06:02:14;;;;;;;17.10;8.15;;;;;;;14.32;60.26;96982.47;6247295;23;20415;-77
2023/10/11 06:04:41;;;;;;;21.00;7.90;;;;;;;14.33;60.04;96981.44;6246913;23;20020;-77
2023/10/11 06:07:12;;;;;;;16.02;5.75;;;;;;;14.34;60.25;96977.84;6247137;22;20070;-77
2023/10/11 06:09:45;;;;;;;13.00;6.05;;;;;;;14.37;60.34;96981.88;6247370;23;20016;-78
2023/10/11 06:12:23;;;;;;;13.70;6.03;;;;;;;14.39;60.21;96983.28;6246941;23;20063;-77
2023/10/11 06:14:52;;;;;;;13.05;5.35;;;;;;;14.43;60.01;96989.78;6246588;23;20071;-77
2023/10/11 06:17:22;;;;;;;25.25;7.90;;;;;;;14.50;59.93;96989.00;6246376;22;20020;-77
2023/10/11 06:19:54;;;;;;;17.00;6.65;;;;;;;14.56;59.79;96982.97;6246731;23;20056;-77
2023/10/11 06:22:25;;;;;;;;;;;;;;;14.67;59.65;96987.66;6247421;23;20020;-77
2023/10/11 06:24:58;;;;;;;13.48;6.55;;;;;;;14.72;59.44;96979.19;6246417;23;19935;-77
2023/10/11 06:30:12;;;;;;;13.57;7.05;;;;;;;14.80;59.31;96989.47;6246867;23;20020;-78
2023/10/11 06:32:40;;;;;;;13.95;8.43;;;;;;;14.86;59.15;96987.91;6247170;23;20027;-78
2023/10/11 06:35:16;;;;;;;20.88;10.18;;;;;;;14.92;58.57;96990.53;6246326;23;20397;-78
2023/10/11 06:37:52;;;;;;;19.23;10.80;;;;;;;15.03;58.86;96992.56;6246949;22;20405;-77
2023/10/11 06:40:38;;;;;;;20.63;11.45;;;;;;;15.15;58.40;96987.53;6246855;23;20456;-78
2023/10/11 06:43:06;;;;;;;23.48;12.63;;;;;;;15.27;58.19;97000.09;6246650;23;20023;-77
2023/10/11 06:45:34;;;;;;;25.85;14.25;;;;;;;15.33;57.90;96994.03;6262797;23;20043;-78
2023/10/11 06:48:06;;;;;;;27.02;12.57;;;;;;;15.47;57.65;96990.38;6247879;22;20028;-78
2023/10/11 06:50:36;;;;;;;20.05;12.93;;;;;;;15.65;57.32;96989.75;6246514;23;20015;-77
2023/10/11 06:53:07;;;;;;;28.60;14.20;;;;;;;15.82;56.83;96996.22;6246883;23;20026;-78
2023/10/11 06:55:37;;;;;;;30.48;15.05;;;;;;;15.96;56.52;96997.03;6246256;23;20031;-77
2023/10/11 06:58:15;;;;;;;24.45;12.90;;;;;;;16.12;56.42;96994.97;6246066;22;20051;-78
2023/10/11 07:00:46;;;;;;;19.60;11.27;;;;;;;16.25;55.97;96987.81;6246556;23;20078;-78
2023/10/11 07:06:10;;;;;;;13.50;7.55;;;;;;;16.50;55.37;96981.03;6219119;23;20410;-78
2023/10/11 07:08:48;;;;;;;15.23;8.65;;;;;;;16.63;55.10;96984.41;6246967;23;20028;-78
2023/10/11 07:11:40;;;;;;;18.95;7.90;;;;;;;16.80;54.61;96987.38;6246038;23;20020;-79
2023/10/11 07:14:14;;;;;;;16.15;7.30;;;;;;;16.96;54.40;96988.72;6246301;23;20091;-78
2023/10/11 07:16:44;;;;;;;16.40;6.85;;;;;;;17.16;54.27;96987.78;6246723;22;20051;-78
2023/10/11 07:19:15;;;;;;;13.63;5.80;;;;;;;17.38;53.72;96988.22;6246248;23;20484;-78
2023/10/11 07:21:53;;;;;;;12.65;5.20;;;;;;;17.58;53.20;96994.16;6246614;23;20503;-79
2023/10/11 07:24:19;;;;;;;14.57;4.85;;;;;;;17.80;52.81;96983.16;6246617;23;20051;-78
2023/10/11 07:26:49;;;;;;;11.15;5.28;;;;;;;18.02;52.20;96984.41;6244618;22;20035;-80
2023/10/11 07:29:20;;;;;;;9.25;4.32;;;;;;;18.28;51.72;96983.31;6246503;23;20103;-80
2023/10/11 07:31:51;;;;;;;11.00;5.13;;;;;;;18.53;51.15;96993.75;6246253;23;20418;-80
2023/10/11 07:34:21;;;;;;;11.15;4.90;;;;;;;18.79;50.50;96997.13;6245810;23;20028;-80
2023/10/11 07:36:50;;;;;;;12.07;5.07;;;;;;;18.97;50.06;96998.91;6246019;22;20024;-80
2023/10/11 07:39:26;;;;;;;12.02;4.68;;;;;;;19.14;49.48;96994.56;6246032;23;20024;-80
2023/10/11 07:42:06;;;;;;;12.27;5.15;;;;;;;19.41;48.88;97003.94;6259708;23;20063;-80
2023/10/11 07:44:37;;;;;;;13.30;4.63;;;;;;;19.74;48.58;96998.97;6259240;23;20024;-81
2023/10/11 07:47:08;;;;;;;12.95;5.53;;;;;;;20.17;47.54;96997.75;6257321;22;20046;-80
2023/10/11 07:49:39;;;;;;;15.73;5.93;;;;;;;20.67;46.35;97007.00;6247462;23;20024;-80
2023/10/11 07:52:09;;;;;;;;;;;;;;;21.40;46.40;97008.00;6247284;23;20027;-80
2023/10/11 07:54:39;;;;;;;18.00;8.02;;;;;;;21.74;44.04;97005.38;6246153;23;19920;-80
2023/10/11 07:57:13;;;;;;;26.27;9.45;;;;;;;21.68;43.63;96997.56;6246194;22;20028;-80
2023/10/11 07:59:41;;;;;;;19.27;10.95;;;;;;;21.67;43.60;96998.59;6246254;23;20020;-80
2023/10/11 08:02:26;;;;;;;18.90;11.32;;;;;;;21.75;43.68;97000.84;6246042;23;20024;-80
2023/10/11 08:04:54;;;;;;;17.67;11.00;;;;;;;22.40;42.73;97002.03;6245198;22;20023;-80
2023/10/11 08:07:22;;;;;;;24.88;12.68;;;;;;;23.42;40.97;97003.09;6246823;22;20103;-80
2023/10/11 08:09:53;;;;;;;19.35;11.20;;;;;;;24.35;38.92;96999.13;6245957;23;20024;-80
2023/10/11 08:12:23;;;;;;;25.25;12.52;;;;;;;24.83;37.62;97004.41;6245632;23;20016;-80
2023/10/11 08:14:56;;;;;;;18.48;11.43;;;;;;;24.78;37.62;97007.06;6245942;23;20022;-80
2023/10/11 08:17:27;;;;;;;21.75;11.70;;;;;;;24.32;38.78;96998.88;6245409;22;20099;-80
2023/10/11 08:19:56;;;;;;;21.05;12.73;;;;;;;24.11;38.78;97004.09;6245250;23;20470;-80
2023/10/11 08:22:23;;;;;;;17.90;13.23;;;;;;;23.96;38.85;97009.34;6245643;23;20357;-80
2023/10/11 08:24:56;;;;;;;21.35;12.88;;;;;;;23.94;39.49;97009.63;6245731;23;20059;-80
2023/10/11 08:27:28;;;;;;;21.83;14.25;;;;;;;24.07;38.95;97000.34;6245223;22;20020;-81
2023/10/11 08:30:07;;;;;;;19.17;13.98;;;;;;;24.27;39.24;96995.13;6245680;23;20095;-80
2023/10/11 08:32:42;;;;;;;23.48;13.38;;;;;;;24.50;38.65;96985.09;6245450;23;20023;-80
2023/10/11 08:35:16;;;;;;;23.77;12.77;;;;;;;24.64;38.16;96980.06;6245141;23;20078;-81
2023/10/11 08:37:44;;;;;;;15.18;10.45;;;;;;;24.74;38.38;96979.31;6245370;22;20102;-80
2023/10/11 08:40:20;;;;;;;19.25;10.73;;;;;;;24.93;38.25;96979.63;6245403;23;20107;-80
2023/10/11 08:42:50;;;;;;;15.38;9.80;;;;;;;25.15;37.92;96969.50;6245506;23;20020;-80
2023/10/11 08:45:24;;;;;;;15.48;9.75;;;;;;;25.33;37.64;96978.88;6245291;23;20031;-80
2023/10/11 08:47:53;;;;;;;14.35;6.70;;;;;;;25.47;37.75;96982.63;6245330;22;20051;-81
2023/10/11 08:50:21;;;;;;;18.00;7.22;;;;;;;25.64;37.94;96985.00;6245781;23;20024;-80
2023/10/11 08:52:51;;;;;;;14.95;6.18;;;;;;;25.78;37.48;96982.56;6245330;23;20020;-81
2023/10/11 08:55:19;;;;;;;10.20;4.80;;;;;;;25.94;37.28;96979.91;6245683;23;20098;-80
2023/10/11 08:57:49;;;;;;;11.98;6.18;;;;;;;26.16;37.20;96982.25;6245435;22;20023;-81
2023/10/11 09:00:29;;;;;;;10.43;5.57;;;;;;;26.40;36.94;96987.78;6244937;23;20016;-79
2023/10/11 09:02:58;;;;;;;14.80;4.90;;;;;;;26.67;36.66;96977.47;6245402;23;20098;-80
2023/10/11 09:05:42;;;;;;;15.55;5.03;;;;;;;26.96;36.30;96981.34;6244997;23;20358;-80
2023/10/11 09:08:21;;;;;;;11.93;4.65;;;;;;;27.29;35.05;96977.91;6245099;22;20054;-80
2023/10/11 09:10:50;;;;;;;9.00;4.47;;;;;;;27.62;34.80;96975.50;6245221;23;20058;-81
2023/10/11 09:13:27;;;;;;;9.40;4.65;;;;;;;27.92;33.84;96985.16;6244896;23;20020;-80
2023/10/11 09:15:55;;;;;;;10.45;5.00;;;;;;;28.08;33.68;96980.41;6244896;23;20082;-81
2023/10/11 09:18:25;;;;;;;8.93;4.47;;;;;;;28.29;33.27;96972.13;6244732;22;20074;-81
2023/10/11 09:21:08;;;;;;;11.70;4.55;;;;;;;28.62;32.62;96973.06;6245362;23;20024;-80
2023/10/11 09:23:37;;;;;;;9.25;4.00;;;;;;;28.94;31.44;96976.94;6244794;23;20023;-80
2023/10/11 09:26:05;;;;;;;10.95;4.53;;;;;;;29.09;30.90;96978.63;6244527;23;20081;-81
2023/10/11 09:28:40;;;;;;;11.95;4.75;;;;;;;29.23;30.28;96975.97;6244286;22;20024;-81
2023/10/11 09:31:11;;;;;;;14.35;5.32;;;;;;;29.47;29.92;96979.34;6244874;23;20024;-80
2023/10/11 09:33:41;;;;;;;9.13;4.50;;;;;;;29.75;29.70;96976.75;6244216;23;20066;-80
2023/10/11 09:36:09;;;;;;;12.98;5.30;;;;;;;29.92;29.29;96981.56;6244656;23;20078;-80
2023/10/11 09:38:40;;;;;;;14.25;5.50;;;;;;;30.03;29.28;96979.47;6244792;22;20039;-80
2023/10/11 09:41:10;;;;;;;11.30;4.83;;;;;;;30.27;28.83;96979.28;6244488;23;20473;-80
2023/10/11 09:43:44;;;;;;;14.73;5.00;;;;;;;30.48;27.88;96982.34;6245107;23;20401;-81
2023/10/11 09:46:13;;;;;;;8.60;5.18;;;;;;;30.69;28.06;96983.53;6244451;23;20051;-81
2023/10/11 09:48:41;;;;;;;12.25;4.88;;;;;;;30.88;27.41;96982.63;6245256;22;20048;-80
2023/10/11 09:51:13;;;;;;;15.00;3.75;;;;;;;31.09;26.79;96983.72;6246074;23;20020;-80
2023/10/11 09:53:50;;;;;;;15.85;4.20;;;;;;;31.22;24.78;96984.78;6246082;23;20016;-81
2023/10/11 09:56:30;;;;;;;16.65;3.72;;;;;;;31.32;24.41;96981.06;6245415;23;20039;-81
2023/10/11 09:59:06;;;;;;;11.52;3.45;;;;;;;31.41;23.35;96984.59;6246248;23;20075;-81
2023/10/11 10:01:40;;;;;;;11.70;3.60;;;;;;;31.60;23.76;96990.63;6246337;23;20062;-81
2023/10/11 10:04:09;;;;;;;8.50;3.10;;;;;;;31.80;23.30;96985.81;6246862;23;20027;-81
2023/10/11 10:06:37;;;;;;;18.55;3.67;;;;;;;31.97;22.93;96980.50;6247327;22;20446;-81
2023/10/11 10:09:26;;;;;;;16.65;4.38;;;;;;;32.10;22.46;96986.91;6247385;23;20020;-80
2023/10/11 10:12:20;;;;;;;9.52;3.63;;;;;;;32.26;22.72;96986.50;6247769;23;20409;-81
2023/10/11 10:15:02;;;;;;;7.75;2.97;;;;;;;32.52;22.11;96984.69;6247761;23;20074;-81
2023/10/11 10:17:31;;;;;;;9.30;3.47;;;;;;;32.92;22.02;96987.25;6248167;22;20027;-81
2023/10/11 10:20:43;;;;;;;10.20;3.13;;;;;;;33.83;21.71;96993.56;6249110;23;20618;-81
2023/10/11 10:23:30;;;;;;;12.15;3.53;;;;;;;34.75;20.71;96986.75;6244740;23;20020;-81
2023/10/11 10:26:26;;;;;;;8.13;3.47;;;;;;;35.08;19.83;96986.81;6255733;23;20055;-81
2023/10/11 10:28:57;;;;;;;11.45;2.65;;;;;;;35.11;19.09;96974.50;6248008;23;20099;-81
2023/10/11 10:31:26;;;;;;;11.05;3.10;;;;;;;35.12;19.27;96981.53;6247326;23;20031;-81
2023/10/11 10:34:29;;;;;;;11.80;2.88;;;;;;;35.13;19.33;96983.13;6247637;23;20020;-81
2023/10/11 10:37:06;;;;;;;7.60;3.13;;;;;;;35.13;18.97;96969.59;6247601;22;20371;-81
2023/10/11 10:39:46;;;;;;;12.82;3.90;;;;;;;35.21;19.11;96971.44;6247106;23;20462;-81
2023/10/11 10:42:16;;;;;;;15.35;4.22;;;;;;;35.34;19.24;96968.78;6247136;23;20247;-82
2023/10/11 10:45:02;;;;;;;10.73;2.90;;;;;;;35.44;19.10;96960.19;6246888;23;20024;-81
2023/10/11 10:47:32;;;;;;;8.23;3.05;;;;;;;35.50;18.73;96964.28;6248997;22;20035;-81
2023/10/11 10:50:10;;;;;;;12.45;3.05;;;;;;;35.51;18.56;96965.84;6249958;23;20035;-82
2023/10/11 10:52:39;;;;;;;14.85;4.25;;;;;;;35.53;18.35;96969.03;6249365;23;20090;-81
2023/10/11 10:55:07;;;;;;;10.32;3.10;;;;;;;35.48;18.54;96964.59;6248913;23;20406;-82
2023/10/11 10:57:38;;;;;;;8.88;3.58;;;;;;;35.61;18.20;96957.28;6249634;22;20024;-81
2023/10/11 11:00:07;;;;;;;13.23;3.35;;;;;;;35.83;18.32;96949.88;6249385;23;20481;-82
2023/10/11 11:02:38;;;;;;;7.68;3.67;;;;;;;35.94;17.76;96961.88;6249680;23;20026;-82
2023/10/11 11:05:13;;;;;;;9.95;3.58;;;;;;;36.03;17.81;96954.41;6249810;23;20026;-82
2023/10/11 11:07:47;;;;;;;9.25;3.33;;;;;;;36.15;17.87;96953.66;6249575;22;20357;-82
2023/10/11 11:10:20;;;;;;;9.32;3.42;;;;;;;36.27;17.82;96961.00;6250005;23;20028;-81
2023/10/11 11:12:47;;;;;;;10.70;3.30;;;;;;;36.43;17.24;96944.78;6249193;23;20473;-81
2023/10/11 11:15:20;;;;;;;10.35;3.10;;;;;;;36.56;17.67;96948.28;6249380;23;20028;-82
2023/10/11 11:17:50;;;;;;;10.52;3.13;;;;;;;36.47;17.20;96938.34;6249435;22;20078;-82
2023/10/11 11:20:31;;;;;;;10.18;3.45;;;;;;;36.45;17.39;96940.63;6249312;23;20030;-82
2023/10/11 11:22:58;;;;;;;8.95;3.05;;;;;;;36.67;17.45;96933.13;6249202;23;20357;-81
2023/10/11 11:25:29;;;;;;;9.75;3.33;;;;;;;36.95;17.14;96927.69;6248537;23;20091;-82
2023/10/11 11:28:18;;;;;;;9.68;3.78;;;;;;;36.89;16.89;96934.53;6247987;22;20024;-82
2023/10/11 11:31:05;;;;;;;7.72;3.10;;;;;;;36.80;17.32;96931.97;6241655;22;20099;-79
2023/10/11 11:33:36;;;;;;;11.77;3.45;;;;;;;36.99;17.48;96922.38;6249647;23;20020;-80
2023/10/11 11:36:10;;;;;;;10.88;3.40;;;;;;;37.54;17.43;96926.16;6248958;23;20099;-79
2023/10/11 11:38:46;;;;;;;15.02;4.03;;;;;;;38.61;16.36;96924.44;6248948;22;20102;-79
2023/10/11 11:41:16;;;;;;;11.75;4.15;;;;;;;40.00;15.46;96917.28;6260003;23;20408;-78
2023/10/11 11:43:55;;;;;;;6.60;2.85;;;;;;;41.33;14.44;96911.59;6266667;23;20021;-78
2023/10/11 11:46:21;;;;;;;11.02;3.00;;;;;;;42.32;13.39;96921.00;6264617;23;20404;-80
2023/10/11 11:48:51;;;;;;;9.50;3.28;;;;;;;43.11;12.86;96924.91;6250530;23;20024;-80
2023/10/11 11:51:18;;;;;;;10.05;3.38;;;;;;;43.79;12.33;96922.28;6250680;23;20020;-80
2023/10/11 11:53:45;;;;;;;11.25;3.22;;;;;;;44.09;12.11;96921.09;6250025;23;20020;-80
2023/10/11 11:56:12;;;;;;;8.93;3.17;;;;;;;43.96;12.10;96922.66;6249421;23;20078;-79
2023/10/11 11:58:45;;;;;;;9.32;3.50;;;;;;;44.11;12.03;96909.72;6248740;22;20048;-80
2023/10/11 12:01:15;;;;;;;8.88;3.15;;;;;;;44.58;11.82;96913.13;6249928;23;20099;-80
2023/10/11 12:03:52;;;;;;;10.27;3.13;;;;;;;44.68;11.58;96906.03;6250919;23;20043;-80
2023/10/11 12:06:23;;;;;;;11.32;3.55;;;;;;;43.63;12.48;96899.88;6248837;23;20454;-80
2023/10/11 12:08:57;;;;;;;7.35;3.17;;;;;;;42.09;13.19;96889.13;6249306;23;20028;-79
2023/10/11 12:11:28;;;;;;;8.23;3.35;;;;;;;40.74;14.42;96883.97;6249313;23;20024;-79
2023/10/11 12:13:57;;;;;;;9.10;3.85;;;;;;;39.58;15.19;96875.25;6248383;23;20016;-79
2023/10/11 12:16:25;;;;;;;7.45;2.97;;;;;;;38.58;16.02;96873.38;6248696;22;20052;-80